Time;durP1;ratioP1;P1;durP2;ratioP2;P2;SDS_P1;SDS_P2;PMS_P1;PMS_P2;Temp;Humidity;BMP_temperature;BMP_pressure;BME280_temperature;BME280_humidity;BME280_pressure;Samples;Min_cycle;Max_cycle;Signal;HPM_P1;HPM_P2
2021/08/10 00:01:06;;;;;;;4.57;3.15;;;16.50;90.80;;;;;;5055218;28;20032;-79
2021/08/10 00:03:32;;;;;;;5.88;3.15;;;16.50;90.90;;;;;;5054749;28;20033;-79
2021/08/10 00:05:58;;;;;;;6.53;3.63;;;16.50;91.00;;;;;;5054839;28;20082;-79
2021/08/10 00:08:23;;;;;;;6.70;3.17;;;16.50;91.00;;;;;;5072257;28;20039;-79
2021/08/10 00:10:50;;;;;;;7.65;2.90;;;16.40;91.00;;;;;;5054618;28;20028;-79
2021/08/10 00:13:19;;;;;;;6.00;3.20;;;16.50;91.00;;;;;;5072441;28;20040;-79
2021/08/10 00:15:46;;;;;;;8.63;3.35;;;16.40;91.00;;;;;;5054701;28;20112;-79
2021/08/10 00:18:11;;;;;;;5.63;2.88;;;16.40;91.10;;;;;;5057314;28;20033;-79
2021/08/10 00:20:37;;;;;;;8.88;2.92;;;16.40;91.10;;;;;;5075787;28;20124;-79
2021/08/10 00:23:03;;;;;;;7.65;3.10;;;16.40;91.10;;;;;;5075796;28;20036;-79
2021/08/10 00:25:29;;;;;;;5.47;3.13;;;16.40;91.40;;;;;;5057670;28;20131;-79
2021/08/10 00:27:56;;;;;;;5.60;2.90;;;16.40;91.20;;;;;;5058120;28;20029;-79
2021/08/10 00:30:21;;;;;;;6.38;3.03;;;16.40;91.20;;;;;;5057729;28;20028;-79
2021/08/10 00:32:48;;;;;;;10.18;2.97;;;16.40;91.20;;;;;;5021164;28;20040;-79
2021/08/10 00:35:14;;;;;;;6.78;2.88;;;16.40;91.20;;;;;;5038082;28;20406;-79
2021/08/10 00:37:41;;;;;;;8.68;3.55;;;16.40;91.20;;;;;;5040837;28;20024;-79
2021/08/10 00:40:08;;;;;;;6.75;2.80;;;16.40;91.20;;;;;;5057302;28;20392;-78
2021/08/10 00:42:34;;;;;;;6.25;2.85;;;16.40;91.20;;;;;;5057453;28;20028;-79
2021/08/10 00:44:59;;;;;;;8.90;3.63;;;16.40;91.20;;;;;;5075746;28;20020;-79
2021/08/10 00:47:25;;;;;;;4.78;2.80;;;16.40;91.30;;;;;;5056897;28;20045;-79
2021/08/10 00:49:51;;;;;;;6.20;2.50;;;16.30;91.30;;;;;;5056829;28;20107;-79
2021/08/10 00:52:16;;;;;;;5.10;2.90;;;16.30;91.30;;;;;;5056366;28;20042;-79
2021/08/10 00:54:42;;;;;;;4.97;2.65;;;16.30;91.20;;;;;;5056783;28;20508;-79
2021/08/10 00:57:08;;;;;;;4.70;2.60;;;16.30;91.20;;;;;;5074783;28;20040;-79
2021/08/10 00:59:33;;;;;;;6.75;2.92;;;16.20;91.20;;;;;;5057492;28;20112;-79
2021/08/10 01:01:59;;;;;;;5.32;2.70;;;16.20;91.20;;;;;;5075620;28;20029;-79
2021/08/10 01:04:25;;;;;;;7.70;2.80;;;16.20;91.30;;;;;;5075570;28;20025;-78
2021/08/10 01:07:07;;;;;;;5.57;2.60;;;16.20;91.30;;;;;;5057377;28;20389;-78
2021/08/10 01:10:13;;;;;;;8.77;3.05;;;16.20;91.40;;;;;;5057005;28;20086;-79
2021/08/10 01:13:04;;;;;;;4.72;2.80;;;16.20;91.50;;;;;;5074646;28;20048;-79
2021/08/10 01:15:42;;;;;;;6.18;2.63;;;16.30;91.40;;;;;;5075173;28;20017;-79
2021/08/10 01:18:34;;;;;;;4.55;2.63;;;16.30;91.50;;;;;;5074857;28;20042;-79
2021/08/10 01:21:39;;;;;;;8.77;3.50;;;16.30;91.60;;;;;;5061062;28;20497;-79
2021/08/10 01:24:12;;;;;;;6.25;3.45;;;16.30;91.60;;;;;;5073119;28;20123;-79
2021/08/10 01:27:09;;;;;;;5.15;2.65;;;16.40;91.70;;;;;;5056509;28;20016;-79
2021/08/10 01:30:12;;;;;;;4.80;2.70;;;16.40;91.70;;;;;;5073930;28;20036;-79
2021/08/10 01:32:40;;;;;;;6.00;2.97;;;16.40;91.70;;;;;;5066684;28;20024;-79
2021/08/10 01:35:07;;;;;;;7.47;2.90;;;16.40;91.70;;;;;;5075013;28;20024;-79
2021/08/10 01:37:34;;;;;;;3.35;2.75;;;16.40;91.80;;;;;;5023955;28;20158;-78
2021/08/10 01:40:08;;;;;;;5.43;2.88;;;16.40;91.80;;;;;;5057101;28;20025;-78
2021/08/10 01:42:37;;;;;;;9.55;2.78;;;16.50;91.80;;;;;;5074545;28;20111;-78
2021/08/10 01:45:03;;;;;;;5.35;2.63;;;16.50;91.80;;;;;;5074870;28;20025;-79
2021/08/10 01:47:31;;;;;;;3.40;2.55;;;16.50;91.80;;;;;;5056901;28;20111;-79
2021/08/10 01:49:59;;;;;;;7.30;2.80;;;16.50;91.90;;;;;;5056673;28;20370;-78
2021/08/10 01:52:26;;;;;;;8.68;2.90;;;16.50;91.90;;;;;;5083729;28;20028;-78
2021/08/10 01:54:53;;;;;;;9.32;2.97;;;16.60;91.90;;;;;;5077120;28;20048;-79
2021/08/10 01:57:19;;;;;;;6.72;3.15;;;16.60;91.90;;;;;;5094977;28;20121;-79
2021/08/10 01:59:51;;;;;;;7.40;3.05;;;16.60;92.00;;;;;;5094737;28;20101;-78
2021/08/10 02:02:17;;;;;;;5.90;2.60;;;16.60;92.00;;;;;;5082768;28;20039;-78
2021/08/10 02:04:44;;;;;;;5.80;2.95;;;16.60;92.00;;;;;;5039275;28;20028;-79
2021/08/10 02:07:10;;;;;;;11.45;4.80;;;16.60;92.00;;;;;;5055106;28;20039;-79
2021/08/10 02:09:37;;;;;;;16.52;3.85;;;16.60;92.20;;;;;;5073118;28;20045;-79
2021/08/10 02:12:03;;;;;;;12.15;4.57;;;16.60;92.30;;;;;;5018740;28;20141;-79
2021/08/10 02:14:30;;;;;;;8.13;4.00;;;16.60;92.50;;;;;;5039320;28;20392;-79
2021/08/10 02:16:59;;;;;;;13.02;3.78;;;16.60;92.70;;;;;;5055765;28;20021;-79
2021/08/10 02:19:25;;;;;;;10.48;4.00;;;16.50;92.70;;;;;;5056323;28;20021;-79
2021/08/10 02:21:56;;;;;;;7.38;3.90;;;16.50;92.70;;;;;;5056249;28;20032;-79
2021/08/10 02:24:25;;;;;;;8.95;4.00;;;16.50;92.70;;;;;;5074067;28;20074;-79
2021/08/10 02:26:58;;;;;;;8.10;4.22;;;16.40;92.50;;;;;;5056095;28;20021;-79
2021/08/10 02:29:28;;;;;;;10.10;3.88;;;16.40;92.40;;;;;;5074191;28;20070;-79
2021/08/10 02:31:54;;;;;;;7.97;4.32;;;16.40;92.30;;;;;;5073881;28;20082;-79
2021/08/10 02:34:21;;;;;;;9.93;3.70;;;16.40;92.20;;;;;;5074266;28;20017;-79
2021/08/10 02:36:52;;;;;;;7.45;3.90;;;16.40;92.10;;;;;;5056001;28;20025;-79
2021/08/10 02:39:18;;;;;;;8.50;3.72;;;16.40;92.10;;;;;;5055911;28;20025;-79
2021/08/10 02:41:45;;;;;;;7.80;4.55;;;16.40;92.00;;;;;;5073748;28;20040;-79
2021/08/10 02:44:12;;;;;;;6.75;4.30;;;16.30;92.00;;;;;;5055821;28;20063;-79
2021/08/10 02:46:39;;;;;;;7.63;4.50;;;16.30;92.00;;;;;;5073772;28;20511;-79
2021/08/10 02:49:09;;;;;;;7.30;3.88;;;16.30;92.20;;;;;;5073744;28;20389;-79
2021/08/10 02:51:35;;;;;;;12.68;4.78;;;16.30;91.90;;;;;;5055842;28;20025;-79
2021/08/10 02:54:01;;;;;;;9.10;4.18;;;16.30;91.70;;;;;;5073827;28;20037;-80
2021/08/10 02:56:33;;;;;;;6.25;4.00;;;16.20;91.70;;;;;;5073404;28;20537;-80
2021/08/10 02:59:02;;;;;;;6.50;3.72;;;16.20;91.80;;;;;;5055467;28;20021;-80
2021/08/10 03:01:35;;;;;;;8.23;3.80;;;16.20;91.90;;;;;;5055612;28;20023;-79
2021/08/10 03:04:03;;;;;;;7.07;3.80;;;16.20;91.90;;;;;;5073637;28;20025;-79
2021/08/10 03:06:30;;;;;;;7.50;4.20;;;16.20;91.90;;;;;;5055270;28;20044;-79
2021/08/10 03:09:00;;;;;;;8.45;4.03;;;16.10;91.80;;;;;;5073361;28;20059;-79
2021/08/10 03:11:28;;;;;;;13.50;4.03;;;16.10;91.80;;;;;;5073101;28;20033;-80
2021/08/10 03:13:55;;;;;;;10.30;4.47;;;16.10;91.80;;;;;;5073480;28;20025;-79
2021/08/10 03:16:24;;;;;;;7.70;3.75;;;16.00;91.90;;;;;;5055783;28;20108;-79
2021/08/10 03:18:52;;;;;;;8.23;4.25;;;16.00;92.00;;;;;;5053303;28;20050;-79
2021/08/10 03:21:20;;;;;;;6.50;3.47;;;16.00;92.00;;;;;;5052336;28;20028;-79
2021/08/10 03:23:47;;;;;;;7.37;3.50;;;16.00;92.10;;;;;;5072480;28;20047;-79
2021/08/10 03:26:15;;;;;;;8.93;3.92;;;16.00;92.50;;;;;;5039004;28;20040;-79
2021/08/10 03:28:41;;;;;;;9.50;3.65;;;16.00;92.20;;;;;;5055085;28;20029;-79
2021/08/10 03:31:09;;;;;;;8.65;3.70;;;16.00;92.20;;;;;;5054956;28;20029;-79
2021/08/10 03:33:35;;;;;;;11.05;3.20;;;16.00;92.20;;;;;;5055464;28;20485;-79
2021/08/10 03:36:02;;;;;;;7.35;3.17;;;15.90;92.20;;;;;;5073057;28;20025;-79
2021/08/10 03:38:29;;;;;;;10.85;3.85;;;15.90;92.10;;;;;;5072885;28;20020;-79
2021/08/10 03:40:56;;;;;;;6.75;3.60;;;15.90;92.00;;;;;;5055214;28;20021;-79
2021/08/10 03:43:22;;;;;;;5.95;3.85;;;15.90;92.00;;;;;;5055242;28;20064;-81
2021/08/10 03:45:52;;;;;;;7.97;3.40;;;15.90;92.00;;;;;;5055029;28;20102;-79
2021/08/10 03:48:19;;;;;;;5.95;3.80;;;15.80;92.00;;;;;;5054795;28;20586;-79
2021/08/10 03:50:46;;;;;;;5.90;3.22;;;15.80;92.00;;;;;;5055364;28;20701;-79
2021/08/10 03:53:13;;;;;;;9.18;3.78;;;15.80;92.10;;;;;;5058155;28;20526;-79
2021/08/10 03:55:39;;;;;;;6.80;3.58;;;15.70;92.00;;;;;;5058961;28;20121;-80
2021/08/10 03:58:06;;;;;;;8.55;3.90;;;15.70;92.00;;;;;;5059001;28;20138;-79
2021/08/10 04:00:37;;;;;;;6.97;3.55;;;15.70;92.00;;;;;;5077017;28;20051;-79
2021/08/10 04:03:06;;;;;;;8.75;3.88;;;15.60;92.00;;;;;;5077043;28;20752;-79
2021/08/10 04:05:32;;;;;;;7.80;3.28;;;15.60;92.10;;;;;;5076968;28;20028;-78
2021/08/10 04:08:00;;;;;;;7.88;3.60;;;15.60;92.10;;;;;;5076772;28;20062;-78
2021/08/10 04:10:26;;;;;;;4.97;3.50;;;15.60;92.10;;;;;;5042852;28;20063;-78
2021/08/10 04:12:52;;;;;;;4.22;3.38;;;15.60;92.10;;;;;;5076443;28;20052;-78
2021/08/10 04:15:18;;;;;;;5.72;3.70;;;15.50;92.10;;;;;;5076855;28;20112;-78
2021/08/10 04:17:47;;;;;;;7.63;3.75;;;15.50;92.10;;;;;;5076939;28;20052;-78
2021/08/10 04:20:13;;;;;;;8.10;3.30;;;15.50;92.10;;;;;;5058994;28;20104;-78
2021/08/10 04:22:40;;;;;;;8.75;3.40;;;15.50;92.00;;;;;;5058482;28;20119;-78
2021/08/10 04:25:06;;;;;;;7.55;3.20;;;15.50;92.10;;;;;;5059039;28;20244;-78
2021/08/10 04:27:32;;;;;;;5.78;3.40;;;15.50;92.10;;;;;;5041687;28;20115;-78
2021/08/10 04:29:57;;;;;;;6.03;3.42;;;15.40;92.00;;;;;;5058277;28;20032;-78
2021/08/10 04:32:23;;;;;;;8.20;3.50;;;15.40;92.00;;;;;;5058666;28;20469;-78
2021/08/10 04:34:48;;;;;;;6.40;3.15;;;15.40;92.00;;;;;;5076196;28;20085;-78
2021/08/10 04:37:16;;;;;;;12.48;3.88;;;15.30;92.10;;;;;;5058523;28;20028;-78
2021/08/10 04:39:41;;;;;;;8.45;3.58;;;15.40;92.10;;;;;;5042674;28;20067;-78
2021/08/10 04:42:07;;;;;;;4.85;3.35;;;15.30;92.10;;;;;;5076254;28;20481;-78
2021/08/10 04:44:32;;;;;;;5.70;3.35;;;15.30;92.10;;;;;;5058478;28;20131;-78
2021/08/10 04:46:58;;;;;;;7.07;3.53;;;15.30;92.10;;;;;;5038114;28;20036;-78
2021/08/10 04:49:24;;;;;;;6.25;3.30;;;15.30;92.20;;;;;;5024869;28;20631;-78
2021/08/10 04:51:49;;;;;;;6.75;3.75;;;15.30;92.20;;;;;;5076346;28;20576;-78
2021/08/10 04:54:16;;;;;;;7.07;3.80;;;15.30;92.20;;;;;;5058136;28;20543;-78
2021/08/10 04:56:42;;;;;;;5.07;3.25;;;15.30;92.20;;;;;;5058246;28;20131;-78
2021/08/10 04:59:08;;;;;;;7.82;4.18;;;15.30;92.30;;;;;;5058223;28;20029;-78
2021/08/10 05:01:33;;;;;;;8.30;4.25;;;15.30;92.30;;;;;;5041192;28;20025;-78
2021/08/10 05:03:59;;;;;;;5.47;3.67;;;15.40;92.40;;;;;;5057922;28;20094;-78
2021/08/10 05:06:24;;;;;;;6.65;3.47;;;15.40;92.40;;;;;;5058066;28;20040;-78
2021/08/10 05:08:50;;;;;;;6.00;3.60;;;15.50;92.40;;;;;;5041231;28;20060;-78
2021/08/10 05:11:15;;;;;;;7.07;4.30;;;15.50;92.40;;;;;;5057756;28;20036;-78
2021/08/10 05:13:41;;;;;;;6.55;4.13;;;15.50;92.40;;;;;;5067041;28;20025;-78
2021/08/10 05:16:07;;;;;;;10.57;4.50;;;15.50;92.40;;;;;;5069894;28;20123;-78
2021/08/10 05:18:33;;;;;;;8.13;3.83;;;15.60;92.50;;;;;;5075873;28;20022;-78
2021/08/10 05:20:58;;;;;;;8.02;4.30;;;15.60;92.50;;;;;;5057518;28;20043;-78
2021/08/10 05:23:24;;;;;;;6.57;3.75;;;15.70;92.50;;;;;;5057625;28;20032;-78
2021/08/10 05:25:50;;;;;;;7.68;3.97;;;15.70;92.50;;;;;;5041515;28;20055;-78
2021/08/10 05:28:15;;;;;;;6.28;3.78;;;15.70;92.50;;;;;;5057604;28;20060;-78
2021/08/10 05:30:41;;;;;;;8.95;4.38;;;15.80;92.50;;;;;;5040830;28;20029;-78
2021/08/10 05:33:07;;;;;;;7.93;3.70;;;15.80;92.50;;;;;;5057365;28;20033;-78
2021/08/10 05:35:32;;;;;;;7.03;4.38;;;15.80;92.50;;;;;;5057588;28;20131;-78
2021/08/10 05:37:58;;;;;;;7.88;3.90;;;15.90;92.60;;;;;;5057254;28;20381;-78
2021/08/10 05:40:24;;;;;;;7.85;4.25;;;16.00;92.60;;;;;;5040667;28;20033;-78
2021/08/10 05:42:49;;;;;;;6.28;4.18;;;16.00;92.60;;;;;;5057129;28;20029;-78
2021/08/10 05:45:15;;;;;;;9.98;4.32;;;16.10;92.60;;;;;;5052173;28;20033;-78
2021/08/10 05:47:41;;;;;;;11.60;4.47;;;16.20;92.70;;;;;;5037514;28;20420;-78
2021/08/10 05:50:07;;;;;;;5.05;4.03;;;16.30;93.00;;;;;;5055062;28;20123;-78
2021/08/10 05:52:32;;;;;;;9.30;4.10;;;16.40;92.70;;;;;;5062540;28;20068;-78
2021/08/10 05:54:58;;;;;;;5.45;3.65;;;16.60;92.60;;;;;;5040492;28;20067;-78
2021/08/10 05:57:24;;;;;;;8.95;4.68;;;16.70;92.50;;;;;;5057038;28;20021;-78
2021/08/10 05:59:49;;;;;;;5.78;3.58;;;16.80;92.40;;;;;;5074984;28;20111;-78
2021/08/10 06:02:15;;;;;;;9.80;4.50;;;16.80;92.30;;;;;;5040140;28;20025;-78
2021/08/10 06:04:41;;;;;;;5.82;3.88;;;16.80;92.30;;;;;;5056551;28;20024;-78
2021/08/10 06:07:07;;;;;;;6.72;3.67;;;16.70;92.30;;;;;;5051716;28;20020;-78
2021/08/10 06:15:20;;;;;;;6.18;4.30;;;16.70;92.50;;;;;;5037468;28;20024;-77
2021/08/10 06:17:45;;;;;;;13.45;4.30;;;16.80;92.50;;;;;;5055899;28;20031;-78
2021/08/10 06:20:11;;;;;;;7.93;4.13;;;16.80;92.50;;;;;;5055727;28;20080;-78
2021/08/10 06:22:37;;;;;;;7.97;4.97;;;16.80;92.50;;;;;;5035768;28;20033;-78
2021/08/10 06:25:03;;;;;;;9.20;4.97;;;16.90;92.50;;;;;;5070899;28;20041;-78
2021/08/10 06:27:29;;;;;;;8.43;3.80;;;16.90;92.60;;;;;;5073966;28;20037;-78
2021/08/10 06:29:54;;;;;;;10.30;4.18;;;16.90;92.50;;;;;;5055502;28;20040;-78
2021/08/10 06:32:21;;;;;;;9.88;4.53;;;16.90;92.50;;;;;;5073703;28;20060;-78
2021/08/10 06:34:47;;;;;;;5.60;3.88;;;16.90;92.50;;;;;;5074019;28;20075;-78
2021/08/10 06:37:12;;;;;;;9.02;4.35;;;17.00;92.50;;;;;;5073982;28;20485;-78
2021/08/10 06:39:38;;;;;;;9.00;4.70;;;17.00;92.50;;;;;;5073939;28;20028;-78
2021/08/10 06:42:04;;;;;;;6.63;4.10;;;16.90;92.50;;;;;;5039331;28;20401;-77
2021/08/10 06:44:30;;;;;;;6.32;3.42;;;17.00;92.60;;;;;;5073339;28;20440;-78
2021/08/10 06:46:56;;;;;;;11.95;4.53;;;17.00;92.60;;;;;;5055462;28;20024;-78
2021/08/10 06:49:21;;;;;;;6.15;3.80;;;17.00;92.60;;;;;;5038871;28;20020;-78
2021/08/10 06:51:47;;;;;;;5.63;3.85;;;17.00;92.70;;;;;;5055914;28;20070;-78
2021/08/10 06:54:12;;;;;;;8.45;4.75;;;17.10;92.70;;;;;;5038673;28;20081;-77
2021/08/10 06:56:38;;;;;;;10.88;4.43;;;17.10;92.90;;;;;;5055801;28;20473;-78
2021/08/10 06:59:04;;;;;;;7.18;4.30;;;17.20;92.60;;;;;;5055664;28;20419;-78
2021/08/10 07:01:29;;;;;;;10.95;5.28;;;17.20;92.60;;;;;;5055311;28;20024;-78
2021/08/10 07:03:56;;;;;;;7.57;5.00;;;17.30;92.50;;;;;;5070841;28;20039;-77
2021/08/10 07:06:22;;;;;;;13.27;6.20;;;17.40;92.40;;;;;;5044455;28;20056;-77
2021/08/10 07:08:52;;;;;;;7.22;4.30;;;17.50;92.40;;;;;;5053462;28;20414;-77
2021/08/10 07:11:18;;;;;;;11.68;5.20;;;17.50;92.30;;;;;;5055773;28;20395;-77
2021/08/10 07:13:43;;;;;;;10.63;4.32;;;17.60;92.20;;;;;;5073057;28;20048;-77
2021/08/10 07:16:09;;;;;;;8.15;4.40;;;17.60;92.30;;;;;;5055118;28;20104;-77
2021/08/10 07:18:37;;;;;;;10.35;5.20;;;17.60;92.20;;;;;;5055432;28;20553;-77
2021/08/10 07:21:04;;;;;;;9.13;4.28;;;17.60;92.00;;;;;;5073017;28;20389;-77
2021/08/10 07:23:29;;;;;;;10.07;5.25;;;17.60;92.00;;;;;;5038826;28;20090;-77
2021/08/10 07:25:55;;;;;;;8.45;4.70;;;17.60;92.10;;;;;;5034658;28;20437;-77
2021/08/10 07:28:20;;;;;;;9.70;5.07;;;17.60;92.10;;;;;;5038926;28;20051;-77
2021/08/10 07:30:46;;;;;;;7.55;4.90;;;17.60;92.20;;;;;;5055060;28;20401;-77
2021/08/10 07:33:12;;;;;;;9.20;5.15;;;17.70;92.20;;;;;;5075372;28;20074;-77
2021/08/10 07:35:37;;;;;;;12.85;5.32;;;17.70;92.20;;;;;;5055113;28;20036;-77
2021/08/10 07:38:03;;;;;;;7.05;4.95;;;17.70;92.20;;;;;;5073139;28;20035;-77
2021/08/10 07:40:29;;;;;;;11.65;5.45;;;17.70;92.10;;;;;;5072799;28;20040;-77
2021/08/10 07:42:55;;;;;;;9.43;5.63;;;17.70;92.10;;;;;;5054929;28;20486;-77
2021/08/10 07:45:20;;;;;;;7.88;5.13;;;17.80;92.10;;;;;;5054954;28;20037;-77
2021/08/10 07:47:46;;;;;;;9.27;5.07;;;17.80;92.00;;;;;;5054749;28;20073;-77
2021/08/10 07:50:11;;;;;;;10.20;5.78;;;17.90;91.90;;;;;;5038336;28;20071;-77
2021/08/10 07:52:38;;;;;;;12.73;6.05;;;18.00;91.90;;;;;;5072479;28;20037;-77
2021/08/10 07:55:04;;;;;;;8.05;4.88;;;18.20;91.90;;;;;;5037695;28;20607;-77
2021/08/10 07:57:30;;;;;;;10.13;6.13;;;18.30;91.70;;;;;;5054367;28;20025;-76
2021/08/10 07:59:55;;;;;;;11.77;4.85;;;18.50;91.40;;;;;;5054656;28;20492;-77
2021/08/10 08:02:21;;;;;;;8.98;4.68;;;18.50;91.20;;;;;;5054733;28;20036;-77
2021/08/10 08:04:47;;;;;;;8.75;4.65;;;18.50;90.90;;;;;;5053084;28;20520;-78
2021/08/10 08:07:12;;;;;;;9.57;4.82;;;18.50;90.90;;;;;;5072069;28;20040;-78
2021/08/10 08:09:38;;;;;;;10.18;5.68;;;18.50;91.00;;;;;;5037377;28;20421;-78
2021/08/10 08:12:04;;;;;;;9.38;4.30;;;18.50;91.20;;;;;;5036948;28;20059;-77
2021/08/10 08:14:29;;;;;;;8.65;4.60;;;18.40;91.20;;;;;;5054125;28;20068;-77
2021/08/10 08:16:55;;;;;;;12.40;4.53;;;18.50;91.20;;;;;;5072080;28;20443;-77
2021/08/10 08:19:21;;;;;;;9.55;5.30;;;18.60;91.20;;;;;;5053526;28;20025;-77
2021/08/10 08:21:47;;;;;;;13.70;4.95;;;18.60;91.10;;;;;;5072192;28;20469;-77
2021/08/10 08:24:13;;;;;;;6.75;4.40;;;18.60;91.00;;;;;;5053823;28;20094;-77
2021/08/10 08:26:39;;;;;;;7.60;4.50;;;18.70;91.00;;;;;;5054926;28;20037;-77
2021/08/10 08:29:04;;;;;;;9.77;4.90;;;18.70;90.80;;;;;;5077314;28;20101;-77
2021/08/10 08:31:30;;;;;;;12.23;5.50;;;18.70;90.90;;;;;;5072466;28;20024;-76
2021/08/10 08:33:56;;;;;;;11.23;4.57;;;18.80;91.10;;;;;;5037820;28;20032;-76
2021/08/10 08:36:22;;;;;;;9.20;5.15;;;18.80;91.10;;;;;;5071807;28;20028;-78
2021/08/10 08:38:47;;;;;;;6.45;4.75;;;18.80;91.00;;;;;;5040192;28;20025;-78
2021/08/10 08:41:14;;;;;;;15.00;6.00;;;18.80;90.80;;;;;;5057885;28;20031;-77
2021/08/10 08:43:40;;;;;;;9.63;5.32;;;18.80;90.90;;;;;;5075529;28;20028;-77
2021/08/10 08:46:06;;;;;;;8.82;5.45;;;18.80;91.00;;;;;;5073299;28;20047;-76
2021/08/10 08:48:32;;;;;;;9.93;5.20;;;18.90;91.00;;;;;;5056293;28;20025;-76
2021/08/10 08:51:00;;;;;;;12.60;5.30;;;18.90;91.00;;;;;;5057392;28;20032;-76
2021/08/10 08:53:26;;;;;;;11.30;5.03;;;18.90;90.80;;;;;;5040622;28;20056;-76
2021/08/10 08:55:53;;;;;;;8.25;5.18;;;18.90;90.70;;;;;;5075144;28;20032;-77
2021/08/10 08:58:19;;;;;;;13.05;5.40;;;19.00;90.80;;;;;;5057252;28;20112;-76
2021/08/10 09:00:45;;;;;;;10.73;4.85;;;19.00;90.80;;;;;;5057520;28;20016;-76
2021/08/10 09:03:11;;;;;;;8.30;4.47;;;19.00;90.80;;;;;;5057390;28;20039;-76
2021/08/10 09:05:39;;;;;;;11.40;4.43;;;19.20;90.70;;;;;;5039490;28;20032;-76
2021/08/10 09:08:28;;;;;;;8.68;4.45;;;19.40;90.60;;;;;;5021887;28;20033;-75
2021/08/10 09:10:59;;;;;;;8.07;4.35;;;19.50;90.20;;;;;;5039348;28;20053;-76
2021/08/10 09:13:25;;;;;;;7.55;3.92;;;19.70;90.00;;;;;;5073634;28;20040;-76
2021/08/10 09:15:50;;;;;;;5.18;3.45;;;19.80;89.50;;;;;;5056699;28;20029;-75
2021/08/10 09:18:19;;;;;;;6.43;4.00;;;19.90;88.80;;;;;;5036903;28;20053;-76
2021/08/10 09:21:19;;;;;;;9.30;4.25;;;19.90;88.00;;;;;;5056462;28;20483;-76
2021/08/10 09:23:47;;;;;;;6.15;3.92;;;20.10;87.90;;;;;;5015285;28;20033;-75
2021/08/10 09:26:32;;;;;;;6.50;3.58;;;20.30;86.70;;;;;;5074986;28;20056;-76
2021/08/10 09:28:59;;;;;;;5.38;4.00;;;20.40;86.10;;;;;;5056265;28;20067;-76
2021/08/10 09:31:38;;;;;;;9.77;4.25;;;20.50;86.00;;;;;;5057201;28;20036;-76
2021/08/10 09:34:04;;;;;;;8.45;4.32;;;20.60;85.60;;;;;;5056903;28;20024;-75
2021/08/10 09:36:30;;;;;;;7.47;4.55;;;20.90;84.80;;;;;;5056498;28;20070;-76
2021/08/10 09:38:57;;;;;;;6.88;4.18;;;21.10;83.70;;;;;;5056745;28;20052;-77
2021/08/10 09:41:27;;;;;;;7.82;4.30;;;21.40;82.30;;;;;;5074687;28;20477;-76
2021/08/10 09:44:18;;;;;;;12.20;4.50;;;21.60;81.10;;;;;;5024066;28;20042;-76
2021/08/10 09:46:49;;;;;;;8.23;4.68;;;21.70;81.10;;;;;;5079390;28;20024;-77
2021/08/10 09:49:17;;;;;;;5.90;4.55;;;21.70;80.40;;;;;;5051903;28;20025;-77
2021/08/10 09:51:46;;;;;;;7.70;4.05;;;21.70;80.30;;;;;;5056180;28;20032;-77
2021/08/10 09:54:14;;;;;;;7.78;3.88;;;21.70;79.90;;;;;;5056424;28;20116;-78
2021/08/10 09:56:55;;;;;;;8.02;3.83;;;21.70;80.60;;;;;;5054534;28;20024;-77
2021/08/10 09:59:22;;;;;;;5.72;3.78;;;21.80;80.40;;;;;;5035809;28;20036;-78
2021/08/10 10:01:51;;;;;;;7.30;4.00;;;21.80;80.30;;;;;;5055156;28;20401;-77
2021/08/10 10:04:24;;;;;;;6.15;3.88;;;21.70;80.30;;;;;;5055438;28;20024;-77
2021/08/10 10:06:52;;;;;;;10.55;4.28;;;21.70;80.30;;;;;;5074634;28;20085;-77
2021/08/10 10:09:20;;;;;;;7.07;3.47;;;21.60;80.00;;;;;;5067885;28;20082;-77
2021/08/10 10:11:48;;;;;;;6.55;3.72;;;21.60;80.50;;;;;;5036935;28;20104;-77
2021/08/10 10:14:14;;;;;;;6.47;3.20;;;21.60;80.80;;;;;;5066196;28;20061;-77
2021/08/10 10:16:43;;;;;;;5.75;3.08;;;21.60;80.70;;;;;;5047301;28;20430;-77
2021/08/10 10:19:11;;;;;;;6.38;3.60;;;21.50;80.90;;;;;;5052891;28;20032;-77
2021/08/10 10:21:58;;;;;;;6.82;3.22;;;21.50;80.90;;;;;;5054158;28;20028;-77
2021/08/10 10:24:26;;;;;;;8.43;3.35;;;21.60;80.50;;;;;;5052645;28;20033;-77
2021/08/10 10:27:03;;;;;;;6.68;3.35;;;21.60;80.80;;;;;;5067887;28;20041;-77
2021/08/10 10:29:30;;;;;;;6.83;3.83;;;21.80;81.10;;;;;;5045041;28;20122;-77
2021/08/10 10:31:56;;;;;;;5.68;3.10;;;21.80;81.10;;;;;;5044701;28;20037;-77
2021/08/10 10:34:23;;;;;;;6.38;3.30;;;22.00;80.70;;;;;;5052909;28;20056;-77
2021/08/10 10:36:49;;;;;;;3.78;2.80;;;22.20;79.70;;;;;;5054084;28;20052;-77
2021/08/10 10:39:30;;;;;;;7.18;2.92;;;22.40;79.50;;;;;;5053599;28;20021;-77
2021/08/10 10:41:59;;;;;;;7.00;3.15;;;22.60;78.00;;;;;;5033045;28;20128;-76
2021/08/10 10:44:42;;;;;;;5.80;3.22;;;22.60;77.20;;;;;;5044506;28;20021;-77
2021/08/10 10:47:20;;;;;;;4.15;2.60;;;22.50;77.90;;;;;;5053194;28;20029;-77
2021/08/10 10:49:47;;;;;;;5.22;2.78;;;22.50;78.20;;;;;;5051950;28;20431;-77
2021/08/10 10:52:16;;;;;;;4.90;2.92;;;22.50;78.60;;;;;;5051362;28;20047;-77
2021/08/10 10:54:46;;;;;;;11.52;4.18;;;22.70;78.30;;;;;;5070707;28;20368;-78
2021/08/10 10:57:30;;;;;;;8.35;4.03;;;23.00;76.80;;;;;;5031976;28;20501;-78
2021/08/10 11:00:20;;;;;;;5.05;3.08;;;23.20;75.40;;;;;;5050509;28;20029;-78
2021/08/10 11:03:10;;;;;;;6.38;3.28;;;23.30;74.80;;;;;;5042073;28;20041;-78
2021/08/10 11:05:36;;;;;;;7.72;3.88;;;23.40;75.40;;;;;;5042815;28;20104;-78
2021/08/10 11:08:03;;;;;;;6.72;3.40;;;23.50;74.50;;;;;;5051505;28;20056;-78
2021/08/10 11:10:38;;;;;;;6.78;3.00;;;23.50;73.80;;;;;;5071558;28;20110;-77
2021/08/10 11:13:24;;;;;;;8.35;3.90;;;23.40;73.90;;;;;;5060689;28;20044;-77
2021/08/10 11:15:49;;;;;;;8.18;4.13;;;23.20;74.20;;;;;;5070060;28;20099;-77
2021/08/10 11:18:15;;;;;;;6.25;3.30;;;23.00;75.00;;;;;;5072345;28;20021;-78
2021/08/10 11:20:52;;;;;;;7.20;3.28;;;22.90;75.60;;;;;;5054837;28;20581;-77
2021/08/10 11:23:21;;;;;;;5.88;3.35;;;22.80;76.50;;;;;;5054357;28;20028;-77
2021/08/10 11:25:53;;;;;;;8.10;3.65;;;22.70;76.00;;;;;;5054916;28;20031;-77
2021/08/10 11:28:25;;;;;;;4.60;3.22;;;22.60;75.90;;;;;;5071484;28;20484;-77
2021/08/10 11:30:52;;;;;;;4.82;2.83;;;22.60;76.50;;;;;;5054752;28;20032;-77
2021/08/10 11:33:30;;;;;;;6.72;3.08;;;22.60;75.80;;;;;;5053874;28;20024;-77
2021/08/10 11:36:23;;;;;;;6.57;3.10;;;22.60;75.10;;;;;;5054555;28;20024;-77
2021/08/10 11:38:48;;;;;;;6.18;3.08;;;22.50;75.50;;;;;;5054543;28;20424;-77
2021/08/10 11:41:52;;;;;;;7.82;3.03;;;22.50;75.50;;;;;;5072192;28;20062;-77
2021/08/10 11:44:20;;;;;;;6.28;3.10;;;22.40;76.40;;;;;;4993457;28;20123;-79
2021/08/10 11:46:47;;;;;;;6.03;2.85;;;22.40;75.90;;;;;;4993459;28;20042;-78
2021/08/10 11:49:22;;;;;;;4.55;2.58;;;22.50;76.60;;;;;;5016624;28;20127;-77
2021/08/10 11:51:50;;;;;;;7.68;3.08;;;22.70;75.70;;;;;;5054272;28;20032;-76
2021/08/10 11:54:22;;;;;;;5.83;3.07;;;22.80;74.20;;;;;;5053711;28;20038;-77
2021/08/10 11:57:12;;;;;;;6.03;2.58;;;22.90;74.40;;;;;;5071954;28;20499;-77
2021/08/10 11:59:38;;;;;;;5.07;2.90;;;22.80;75.10;;;;;;5049458;28;20025;-77
2021/08/10 12:02:04;;;;;;;5.40;3.20;;;22.60;76.30;;;;;;5037809;28;20116;-77
2021/08/10 12:04:31;;;;;;;5.22;2.78;;;22.40;76.40;;;;;;5034293;28;20119;-77
2021/08/10 12:06:58;;;;;;;3.83;2.42;;;22.30;76.80;;;;;;5034693;28;20474;-77
2021/08/10 12:09:35;;;;;;;6.28;2.83;;;22.30;76.70;;;;;;5034594;28;20504;-77
2021/08/10 12:12:02;;;;;;;5.65;2.75;;;22.20;77.30;;;;;;5050959;28;20021;-77
2021/08/10 12:14:29;;;;;;;4.55;2.70;;;22.20;77.30;;;;;;5005591;28;20039;-77
2021/08/10 12:17:00;;;;;;;4.68;3.03;;;22.10;77.30;;;;;;5056304;28;20025;-77
2021/08/10 12:19:38;;;;;;;4.57;2.80;;;22.10;78.00;;;;;;5058135;28;20854;-77
2021/08/10 12:22:20;;;;;;;4.70;3.07;;;22.00;78.50;;;;;;5058055;28;20119;-77
2021/08/10 12:24:48;;;;;;;4.50;2.88;;;21.90;79.30;;;;;;5058418;28;20028;-77
2021/08/10 12:27:16;;;;;;;4.70;3.17;;;21.80;79.70;;;;;;5058246;28;20443;-77
2021/08/10 12:29:45;;;;;;;6.40;3.40;;;21.80;80.60;;;;;;5076121;28;20031;-77
2021/08/10 12:32:20;;;;;;;4.78;3.17;;;21.60;80.70;;;;;;5058034;28;20016;-77
2021/08/10 12:34:46;;;;;;;6.28;3.65;;;21.50;81.40;;;;;;5057553;28;20030;-77
2021/08/10 12:37:12;;;;;;;7.70;3.10;;;21.30;81.90;;;;;;5075626;28;20024;-77
2021/08/10 12:39:44;;;;;;;7.75;3.97;;;21.20;82.50;;;;;;5057749;28;20024;-77
2021/08/10 12:42:10;;;;;;;5.43;3.78;;;21.10;83.50;;;;;;5075764;28;20386;-77
2021/08/10 12:44:37;;;;;;;5.93;3.78;;;21.00;84.20;;;;;;5057716;28;20123;-77
2021/08/10 12:47:06;;;;;;;6.75;4.03;;;20.90;85.70;;;;;;5057651;28;20032;-76
2021/08/10 12:49:40;;;;;;;6.68;4.22;;;20.90;85.50;;;;;;5057838;28;20028;-77
2021/08/10 12:52:11;;;;;;;5.00;3.60;;;20.90;85.80;;;;;;5057621;28;20025;-77
2021/08/10 12:54:46;;;;;;;5.47;3.80;;;20.90;86.30;;;;;;5040640;28;20059;-77
2021/08/10 12:57:23;;;;;;;5.57;3.38;;;21.00;86.80;;;;;;5057633;28;20017;-77
2021/08/10 12:59:51;;;;;;;6.05;3.25;;;21.10;87.00;;;;;;5057315;28;20119;-77